createdAt,value
2022-11-03T00:01:41.568Z,99420.00
2022-11-03T00:04:12.254Z,99423.16
2022-11-03T00:06:41.190Z,99422.31
2022-11-03T00:09:10.875Z,99410.25
2022-11-03T00:11:40.065Z,99410.94
2022-11-03T00:14:10.188Z,99401.81
2022-11-03T00:16:38.364Z,99405.50
2022-11-03T00:19:06.718Z,99400.41
2022-11-03T00:21:36.072Z,99406.63
2022-11-03T00:24:04.148Z,99402.19
2022-11-03T00:26:33.422Z,99392.03
2022-11-03T00:29:02.792Z,99389.53
2022-11-03T00:31:31.567Z,99392.00
2022-11-03T00:34:00.294Z,99385.72
2022-11-03T00:36:29.945Z,99381.34
2022-11-03T00:38:59.100Z,99382.06
2022-11-03T00:41:28.054Z,99355.66
2022-11-03T00:43:56.100Z,99383.34
2022-11-03T00:46:24.681Z,99376.13
2022-11-03T00:48:53.309Z,99373.47
2022-11-03T00:51:23.175Z,99372.91
2022-11-03T00:53:52.947Z,99367.72
2022-11-03T00:56:23.822Z,99365.22
2022-11-03T00:58:52.500Z,99368.53
2022-11-03T01:01:22.529Z,99367.75
2022-11-03T01:04:09.364Z,99357.38
2022-11-03T01:06:50.907Z,99358.47
2022-11-03T01:09:18.924Z,99366.22
2022-11-03T01:11:52.516Z,99362.72
2022-11-03T01:14:20.275Z,99365.47
2022-11-03T01:16:48.032Z,99359.09
2022-11-03T01:19:15.874Z,99356.34
2022-11-03T01:21:44.716Z,99353.03
2022-11-03T01:24:12.629Z,99344.31
2022-11-03T01:26:40.163Z,99345.03
2022-11-03T01:29:09.363Z,99343.66
2022-11-03T01:31:37.056Z,99336.84
2022-11-03T01:34:05.063Z,99335.13
2022-11-03T01:36:32.855Z,99330.03
2022-11-03T01:39:00.605Z,99333.88
2022-11-03T01:41:29.491Z,99333.13
2022-11-03T01:44:30.103Z,99328.31
2022-11-03T01:47:01.787Z,99319.66
2022-11-03T01:49:34.770Z,99322.25
2022-11-03T01:52:05.119Z,99322.53
2022-11-03T01:54:33.197Z,99313.25
2022-11-03T01:57:01.187Z,99317.75
2022-11-03T01:59:30.443Z,99319.22
2022-11-03T02:01:58.241Z,99321.13
2022-11-03T02:04:28.815Z,99314.25
2022-11-03T02:07:01.185Z,99311.56
2022-11-03T02:09:28.971Z,99300.09
2022-11-03T02:12:08.632Z,99312.00
2022-11-03T02:14:40.465Z,99302.44
2022-11-03T02:17:10.943Z,99307.47
2022-11-03T02:19:41.471Z,99299.41
2022-11-03T02:22:21.834Z,99306.34
2022-11-03T02:24:54.078Z,99295.75
2022-11-03T02:27:23.864Z,99295.88
2022-11-03T02:29:51.699Z,99298.38
2022-11-03T02:32:23.480Z,99289.63
2022-11-03T02:34:57.717Z,99294.72
2022-11-03T02:37:28.733Z,99280.81
2022-11-03T02:39:59.243Z,99270.41
2022-11-03T02:42:28.466Z,99265.31
2022-11-03T02:44:56.559Z,99260.06
2022-11-03T02:47:25.135Z,99256.19
2022-11-03T02:52:36.728Z,99244.16
2022-11-03T02:55:11.251Z,99241.69
2022-11-03T02:57:44.510Z,99243.34
2022-11-03T03:00:13.141Z,99239.84
2022-11-03T03:02:45.479Z,99234.56
2022-11-03T03:05:15.351Z,99241.47
2022-11-03T03:07:45.817Z,99237.41
2022-11-03T03:10:15.519Z,99231.44
2022-11-03T03:12:48.903Z,99211.72
2022-11-03T03:15:17.484Z,99225.34
2022-11-03T03:17:49.953Z,99223.50
2022-11-03T03:20:22.395Z,99213.94
2022-11-03T03:22:54.414Z,99222.78
2022-11-03T03:25:26.050Z,99217.53
2022-11-03T03:27:58.260Z,99213.22
2022-11-03T03:30:26.084Z,99208.78
2022-11-03T03:32:54.002Z,99195.97
2022-11-03T03:35:23.960Z,99196.78
2022-11-03T03:37:54.098Z,99195.94
2022-11-03T03:40:25.444Z,99195.97
2022-11-03T03:42:53.191Z,99197.47
2022-11-03T03:45:22.348Z,99184.59
2022-11-03T03:47:53.671Z,99185.25
2022-11-03T03:50:26.315Z,99186.13
2022-11-03T03:52:56.360Z,99181.03
2022-11-03T03:55:27.759Z,99183.66
2022-11-03T03:57:58.010Z,99185.31
2022-11-03T04:00:29.346Z,99181.03
2022-11-03T04:02:57.839Z,99181.28
2022-11-03T04:05:25.498Z,99184.94
2022-11-03T04:07:53.338Z,99177.16
2022-11-03T04:10:22.833Z,99165.13
2022-11-03T04:13:08.077Z,99167.44
2022-11-03T04:15:56.815Z,99171.88
2022-11-03T04:18:42.290Z,99171.91
2022-11-03T04:21:29.038Z,99169.38
2022-11-03T04:23:56.587Z,99158.22
2022-11-03T04:26:24.313Z,99164.38
2022-11-03T04:28:53.219Z,99159.75
2022-11-03T04:31:22.663Z,99157.34
2022-11-03T04:33:50.265Z,99149.88
2022-11-03T04:36:20.257Z,99155.97
2022-11-03T04:38:49.035Z,99158.28
2022-11-03T04:41:18.214Z,99151.41
2022-11-03T04:43:46.518Z,99154.19
2022-11-03T04:46:17.031Z,99148.03
2022-11-03T04:48:47.371Z,99148.03
2022-11-03T04:51:17.186Z,99151.75
2022-11-03T04:53:50.295Z,99137.97
2022-11-03T04:56:20.742Z,99143.94
2022-11-03T04:58:48.986Z,99148.41
2022-11-03T05:01:23.732Z,99144.25
2022-11-03T05:03:54.759Z,99133.22
2022-11-03T05:06:23.885Z,99133.94
2022-11-03T05:08:54.405Z,99121.72
2022-11-03T05:11:30.787Z,99120.63
2022-11-03T05:14:00.286Z,99116.41
2022-11-03T05:16:28.677Z,99115.63
2022-11-03T05:18:57.714Z,99112.16
2022-11-03T05:21:26.668Z,99100.72
2022-11-03T05:23:57.324Z,99098.22
2022-11-03T05:26:27.706Z,99099.03
2022-11-03T05:28:59.677Z,99093.94
2022-11-03T05:31:28.999Z,99087.78
2022-11-03T05:33:59.957Z,99087.94
2022-11-03T05:36:29.046Z,99081.41
2022-11-03T05:39:00.226Z,99079.25
2022-11-03T05:41:29.121Z,99063.63
2022-11-03T05:43:59.418Z,99066.00
2022-11-03T05:46:29.363Z,99061.88
2022-11-03T05:48:58.810Z,99057.72
2022-11-03T05:51:30.799Z,99064.59
2022-11-03T05:53:59.496Z,99055.63
2022-11-03T05:56:27.997Z,99060.31
2022-11-03T05:58:57.067Z,99055.13
2022-11-03T06:01:27.800Z,99049.06
2022-11-03T06:03:55.585Z,99041.09
2022-11-03T06:06:31.930Z,99043.81
2022-11-03T06:09:00.514Z,99055.00
2022-11-03T06:11:31.370Z,99060.19
2022-11-03T06:14:00.202Z,99053.28
2022-11-03T06:16:38.479Z,99052.28
2022-11-03T06:19:24.856Z,99042.81
2022-11-03T06:21:56.068Z,99043.66
2022-11-03T06:24:26.636Z,99036.91
2022-11-03T06:26:54.173Z,99037.88
2022-11-03T06:29:22.253Z,99032.97
2022-11-03T06:31:51.331Z,99026.13
2022-11-03T06:34:35.441Z,99029.72
2022-11-03T06:37:20.622Z,99023.63
2022-11-03T06:39:48.924Z,99023.59
2022-11-03T06:42:17.805Z,99023.41
2022-11-03T06:44:47.190Z,99024.63
2022-11-03T06:47:21.907Z,99022.75
2022-11-03T06:49:50.386Z,99023.47
2022-11-03T06:52:26.068Z,99019.81
2022-11-03T06:54:57.157Z,99023.47
2022-11-03T06:57:24.714Z,99011.91
2022-11-03T07:00:06.741Z,99014.25
2022-11-03T07:02:56.000Z,99009.28
2022-11-03T07:05:24.969Z,99007.56
2022-11-03T07:07:58.088Z,98992.31
2022-11-03T07:10:26.343Z,98986.00
2022-11-03T07:12:54.604Z,98993.47
2022-11-03T07:15:28.168Z,98985.41
2022-11-03T07:17:55.982Z,98984.75
2022-11-03T07:20:23.727Z,98993.19
2022-11-03T07:22:52.092Z,98978.78
2022-11-03T07:25:22.557Z,98977.78
2022-11-03T07:27:52.178Z,98979.66
2022-11-03T07:30:21.750Z,98970.72
2022-11-03T07:32:50.900Z,98970.34
2022-11-03T07:35:41.623Z,98964.53
2022-11-03T07:38:19.692Z,98954.94
2022-11-03T07:40:49.364Z,98964.50
2022-11-03T07:43:19.503Z,98957.97
2022-11-03T07:45:50.663Z,98945.25
2022-11-03T07:48:23.363Z,98950.41
2022-11-03T07:50:53.281Z,98935.16
2022-11-03T07:53:26.099Z,98934.91
2022-11-03T07:55:56.588Z,98927.19
2022-11-03T07:58:27.757Z,98933.94
2022-11-03T08:01:01.316Z,98934.03
2022-11-03T08:03:40.937Z,98927.84
2022-11-03T08:06:10.019Z,98926.88
2022-11-03T08:08:38.376Z,98917.41
2022-11-03T08:11:07.782Z,98905.72
2022-11-03T08:13:35.498Z,98903.50
2022-11-03T08:16:03.510Z,98898.25
2022-11-03T08:18:31.104Z,98892.31
2022-11-03T08:20:58.685Z,98894.72
2022-11-03T08:23:26.788Z,98897.81
2022-11-03T08:25:54.486Z,98892.78
2022-11-03T08:28:23.513Z,98894.59
2022-11-03T08:30:51.074Z,98891.34
2022-11-03T08:33:18.712Z,98894.25
2022-11-03T08:35:46.404Z,98883.78
2022-11-03T08:38:13.971Z,98884.84
2022-11-03T08:40:41.579Z,98895.47
2022-11-03T08:43:09.256Z,98900.53
2022-11-03T08:45:38.201Z,98894.31
2022-11-03T08:48:06.645Z,98888.94
2022-11-03T08:50:34.435Z,98883.28
2022-11-03T08:53:01.989Z,98896.81
2022-11-03T08:55:29.578Z,98887.53
2022-11-03T08:57:57.339Z,98888.06
2022-11-03T09:00:24.903Z,98891.13
2022-11-03T09:02:53.852Z,98886.78
2022-11-03T09:05:21.561Z,98879.63
2022-11-03T09:10:38.412Z,98862.06
2022-11-03T09:13:10.288Z,98860.94
2022-11-03T09:15:38.842Z,98853.38
2022-11-03T09:18:08.073Z,98852.97
2022-11-03T09:20:35.899Z,98846.38
2022-11-03T09:23:03.664Z,98841.38
2022-11-03T09:25:31.274Z,98837.75
2022-11-03T09:27:58.905Z,98837.03
2022-11-03T09:30:26.523Z,98832.03
2022-11-03T09:32:54.049Z,98820.88
2022-11-03T09:35:23.043Z,98821.06
2022-11-03T09:37:50.603Z,98808.97
2022-11-03T09:40:18.468Z,98818.94
2022-11-03T09:42:46.276Z,98803.47
2022-11-03T09:45:13.893Z,98811.03
2022-11-03T09:47:42.485Z,98807.00
2022-11-03T09:50:14.998Z,98801.03
2022-11-03T09:52:48.848Z,98786.69
2022-11-03T09:55:20.710Z,98779.84
2022-11-03T09:57:48.390Z,98764.31
2022-11-03T10:00:20.766Z,98743.91
2022-11-03T10:02:48.678Z,98746.75
2022-11-03T10:05:20.188Z,98734.09
2022-11-03T10:07:49.294Z,98732.19
2022-11-03T10:10:19.076Z,98725.13
2022-11-03T10:12:48.220Z,98728.75
2022-11-03T10:15:17.697Z,98729.47
2022-11-03T10:17:46.059Z,98722.88
2022-11-03T10:20:15.439Z,98722.78
2022-11-03T10:22:43.926Z,98728.69
2022-11-03T10:25:31.073Z,98726.78
2022-11-03T10:28:16.558Z,98723.63
2022-11-03T10:31:21.840Z,98722.41
2022-11-03T10:33:41.584Z,98725.53
2022-11-03T10:36:24.561Z,98706.34
2022-11-03T10:38:52.705Z,98701.84
2022-11-03T10:41:23.160Z,98693.56
2022-11-03T10:44:08.169Z,98684.13
2022-11-03T10:46:50.107Z,98675.53
2022-11-03T10:49:19.173Z,98662.28
2022-11-03T10:51:49.388Z,98668.63
2022-11-03T10:54:18.665Z,98659.97
2022-11-03T10:56:48.434Z,98649.50
2022-11-03T10:59:18.589Z,98643.53
2022-11-03T11:01:46.345Z,98636.16
2022-11-03T11:04:17.487Z,98626.03
2022-11-03T11:06:46.146Z,98621.81
2022-11-03T11:09:15.286Z,98632.94
2022-11-03T11:12:05.065Z,98626.31
2022-11-03T11:14:39.021Z,98605.22
2022-11-03T11:17:06.747Z,98605.22
2022-11-03T11:20:07.427Z,98611.44
2022-11-03T11:22:35.032Z,98612.16
2022-11-03T11:25:03.617Z,98606.41
2022-11-03T11:28:06.632Z,98605.50
2022-11-03T11:31:19.329Z,98597.34
2022-11-03T11:33:46.945Z,98597.34
2022-11-03T11:36:24.715Z,98609.78
2022-11-03T11:39:02.998Z,98601.19
2022-11-03T11:42:10.862Z,98596.00
2022-11-03T11:44:52.734Z,98581.91
2022-11-03T11:47:28.180Z,98575.28
2022-11-03T11:50:31.883Z,98574.34
2022-11-03T11:53:21.636Z,98568.28
2022-11-03T11:55:52.298Z,98564.63
2022-11-03T11:58:23.715Z,98576.88
2022-11-03T12:00:58.666Z,98563.94
2022-11-03T12:03:29.881Z,98555.63
2022-11-03T12:05:57.602Z,98535.63
2022-11-03T12:08:29.596Z,98521.75
2022-11-03T12:10:58.521Z,98520.91
2022-11-03T12:13:47.342Z,98524.41
2022-11-03T12:16:38.073Z,98513.00
2022-11-03T12:19:37.020Z,98503.28
2022-11-03T12:22:05.664Z,98486.72
2022-11-03T12:24:47.964Z,98476.66
2022-11-03T12:27:21.754Z,98473.19
2022-11-03T12:29:49.332Z,98486.44
2022-11-03T12:32:32.705Z,98487.38
2022-11-03T12:35:02.595Z,98483.06
2022-11-03T12:37:30.832Z,98474.78
2022-11-03T12:39:58.421Z,98478.59
2022-11-03T12:42:26.055Z,98472.03
2022-11-03T12:44:53.735Z,98464.97
2022-11-03T12:47:22.643Z,98452.63
2022-11-03T12:49:50.447Z,98442.94
2022-11-03T12:52:18.023Z,98444.41
2022-11-03T12:54:45.616Z,98443.19
2022-11-03T12:57:13.867Z,98435.56
2022-11-03T12:59:41.703Z,98428.66
2022-11-03T13:02:11.378Z,98420.50
2022-11-03T13:04:40.431Z,98390.81
2022-11-03T13:07:08.076Z,98394.38
2022-11-03T13:09:36.761Z,98400.00
2022-11-03T13:12:27.240Z,98392.94
2022-11-03T13:14:54.900Z,98382.34
2022-11-03T13:17:22.456Z,98369.16
2022-11-03T13:19:54.802Z,98368.75
2022-11-03T13:22:22.677Z,98368.25
2022-11-03T13:24:50.230Z,98348.69
2022-11-03T13:27:17.960Z,98351.81
2022-11-03T13:29:45.529Z,98352.56
2022-11-03T13:32:12.977Z,98347.41
2022-11-03T13:34:40.679Z,98338.41
2022-11-03T13:37:09.597Z,98326.25
2022-11-03T13:39:37.169Z,98322.50
2022-11-03T13:42:04.983Z,98308.16
2022-11-03T13:44:32.527Z,98299.97
2022-11-03T13:47:00.135Z,98294.03
2022-11-03T13:52:16.576Z,98296.84
2022-11-03T14:00:19.720Z,98288.69
2022-11-03T14:05:35.808Z,98274.56
2022-11-03T14:08:05.576Z,98256.47
2022-11-03T14:10:33.386Z,98254.31
2022-11-03T14:12:59.970Z,98237.03
2022-11-03T14:15:27.689Z,98235.69
2022-11-03T14:17:55.286Z,98248.38
2022-11-03T14:20:22.862Z,98244.91
2022-11-03T14:22:50.406Z,98238.59
2022-11-03T14:25:20.177Z,98234.44
2022-11-03T14:27:48.100Z,98229.16
2022-11-03T14:30:15.839Z,98221.66
2022-11-03T14:32:43.537Z,98232.66
2022-11-03T14:35:11.506Z,98224.06
2022-11-03T14:37:39.145Z,98232.66
2022-11-03T14:40:08.203Z,98228.16
2022-11-03T14:42:36.109Z,98228.91
2022-11-03T14:45:03.679Z,98231.44
2022-11-03T14:47:31.618Z,98227.03
2022-11-03T14:49:59.177Z,98226.00
2022-11-03T14:52:26.711Z,98221.56
2022-11-03T14:54:54.388Z,98218.09
2022-11-03T14:57:22.191Z,98220.91
2022-11-03T14:59:53.583Z,98216.66
2022-11-03T15:02:21.590Z,98209.69
2022-11-03T15:04:49.165Z,98215.63
2022-11-03T15:07:16.723Z,98211.22
2022-11-03T15:09:44.286Z,98206.22
2022-11-03T15:12:11.846Z,98203.31
2022-11-03T15:14:39.399Z,98202.44
2022-11-03T15:17:08.244Z,98189.28
2022-11-03T15:19:35.906Z,98188.69
2022-11-03T15:22:03.471Z,98181.81
2022-11-03T15:27:18.580Z,98174.56
2022-11-03T15:29:46.471Z,98177.41
2022-11-03T15:32:15.618Z,98162.63
2022-11-03T15:34:43.177Z,98161.31
2022-11-03T15:37:10.757Z,98165.91
2022-11-03T15:39:38.304Z,98160.38
2022-11-03T15:42:06.165Z,98158.94
2022-11-03T15:44:33.671Z,98144.06
2022-11-03T15:47:01.288Z,98140.69
2022-11-03T15:49:30.164Z,98133.91
2022-11-03T15:51:57.705Z,98138.91
2022-11-03T15:54:25.244Z,98136.34
2022-11-03T15:56:52.804Z,98129.66
2022-11-03T15:59:20.343Z,98126.44
2022-11-03T16:01:48.183Z,98123.13
2022-11-03T16:04:16.607Z,98117.84
2022-11-03T16:09:33.022Z,98087.38
2022-11-03T16:12:00.636Z,98082.19
2022-11-03T16:14:28.243Z,98069.09
2022-11-03T16:16:56.558Z,98071.09
2022-11-03T16:19:24.127Z,98076.16
2022-11-03T16:21:53.110Z,98064.31
2022-11-03T16:24:20.739Z,98070.41
2022-11-03T16:26:48.355Z,98068.63
2022-11-03T16:29:15.926Z,98069.09
2022-11-03T16:31:43.512Z,98067.31
2022-11-03T16:34:11.123Z,98059.59
2022-11-03T16:36:38.720Z,98071.53
2022-11-03T16:39:07.620Z,98070.78
2022-11-03T16:41:35.249Z,98065.44
2022-11-03T16:44:02.810Z,98058.38
2022-11-03T16:46:30.330Z,98057.53
2022-11-03T16:48:57.854Z,98042.75
2022-11-03T16:51:25.719Z,98035.03
2022-11-03T16:53:54.647Z,98030.44
2022-11-03T16:56:23.847Z,98026.09
2022-11-03T16:58:51.440Z,98009.25
2022-11-03T17:01:19.078Z,98020.56
2022-11-03T17:03:46.779Z,98008.50
2022-11-03T17:06:14.316Z,98004.19
2022-11-03T17:08:57.228Z,97990.25
2022-11-03T17:11:38.143Z,97980.47
2022-11-03T17:14:06.511Z,97960.63
2022-11-03T17:16:34.086Z,97942.22
2022-11-03T17:19:01.613Z,97941.25
2022-11-03T17:21:29.133Z,97944.28
2022-11-03T17:23:58.852Z,97946.91
2022-11-03T17:26:31.604Z,97939.09
2022-11-03T17:28:59.175Z,97941.06
2022-11-03T17:31:26.828Z,97940.50
2022-11-03T17:33:56.955Z,97942.38
2022-11-03T17:36:25.081Z,97929.13
2022-11-03T17:38:52.723Z,97917.84
2022-11-03T17:41:20.300Z,97922.66
2022-11-03T17:43:49.241Z,97913.44
2022-11-03T17:46:16.822Z,97923.94
2022-11-03T17:48:44.385Z,97922.16
2022-11-03T17:51:13.645Z,97922.06
2022-11-03T17:53:42.876Z,97911.56
2022-11-03T17:56:31.490Z,97910.59
2022-11-03T17:59:00.420Z,97904.13
2022-11-03T18:01:28.160Z,97901.41
2022-11-03T18:03:55.866Z,97897.44
2022-11-03T18:06:23.481Z,97876.38
2022-11-03T18:08:51.138Z,97867.38
2022-11-03T18:11:45.404Z,97872.44
2022-11-03T18:14:14.474Z,97870.66
2022-11-03T18:16:42.102Z,97880.63
2022-11-03T18:19:12.485Z,97877.03
2022-11-03T18:21:40.137Z,97882.13
2022-11-03T18:24:12.157Z,97880.25
2022-11-03T18:26:39.837Z,97892.47
2022-11-03T18:31:43.323Z,97907.78
2022-11-03T18:34:14.772Z,97913.88
2022-11-03T18:36:42.572Z,97923.94
2022-11-03T18:39:12.564Z,97921.28
2022-11-03T18:41:40.357Z,97931.00
2022-11-03T18:44:14.970Z,97927.31
2022-11-03T18:46:43.935Z,97932.78
2022-11-03T18:49:11.499Z,97924.22
2022-11-03T18:51:39.432Z,97916.59
2022-11-03T18:54:07.194Z,97913.28
2022-11-03T18:56:38.083Z,97914.25
2022-11-03T18:59:06.035Z,97912.66
2022-11-03T19:01:33.731Z,97910.47
2022-11-03T19:04:02.794Z,97897.59
2022-11-03T19:06:30.362Z,97892.22
2022-11-03T19:08:59.445Z,97876.41
2022-11-03T19:11:27.558Z,97871.44
2022-11-03T19:13:55.318Z,97866.06
2022-11-03T19:16:24.464Z,97861.56
2022-11-03T19:18:52.776Z,97851.31
2022-11-03T19:21:23.416Z,97837.19
2022-11-03T19:23:55.446Z,97824.31
2022-11-03T19:26:27.401Z,97815.97
2022-11-03T19:28:57.446Z,97819.59
2022-11-03T19:31:28.017Z,97817.91
2022-11-03T19:33:58.039Z,97808.50
2022-11-03T19:36:27.445Z,97803.34
2022-11-03T19:38:55.289Z,97796.09
2022-11-03T19:41:55.249Z,97805.56
2022-11-03T19:44:23.013Z,97794.94
2022-11-03T19:46:50.991Z,97794.66
2022-11-03T19:49:18.657Z,97792.50
2022-11-03T19:51:47.936Z,97789.97
2022-11-03T19:54:18.097Z,97785.53
2022-11-03T19:56:46.501Z,97783.13
2022-11-03T19:59:15.766Z,97766.47
2022-11-03T20:01:43.925Z,97764.56
2022-11-03T20:04:11.840Z,97767.84
2022-11-03T20:06:40.960Z,97772.38
2022-11-03T20:09:15.377Z,97765.41
2022-11-03T20:11:43.132Z,97765.31
2022-11-03T20:14:11.796Z,97763.84
2022-11-03T20:16:39.594Z,97752.06
2022-11-03T20:19:07.269Z,97745.00
2022-11-03T20:21:34.990Z,97741.28
2022-11-03T20:24:02.841Z,97720.00
2022-11-03T20:26:31.880Z,97734.84
2022-11-03T20:28:59.996Z,97726.31
2022-11-03T20:31:27.794Z,97722.84
2022-11-03T20:33:55.453Z,97727.06
2022-11-03T20:36:23.171Z,97726.22
2022-11-03T20:38:52.707Z,97733.06
2022-11-03T20:41:20.527Z,97734.75
2022-11-03T20:43:49.872Z,97725.91
2022-11-03T20:46:23.288Z,97729.81
2022-11-03T20:48:51.631Z,97726.22
2022-11-03T20:51:20.698Z,97720.75
2022-11-03T20:53:48.716Z,97726.56
2022-11-03T20:56:19.851Z,97732.47
2022-11-03T20:58:49.260Z,97727.94
2022-11-03T21:01:18.881Z,97731.50
2022-11-03T21:03:59.346Z,97733.84
2022-11-03T21:06:29.149Z,97737.34
2022-11-03T21:08:57.166Z,97736.47
2022-11-03T21:11:27.713Z,97732.16
2022-11-03T21:13:58.519Z,97741.47
2022-11-03T21:16:44.996Z,97742.78
2022-11-03T21:19:34.728Z,97733.56
2022-11-03T21:22:02.551Z,97715.34
2022-11-03T21:24:30.243Z,97727.66
2022-11-03T21:26:58.419Z,97736.47
2022-11-03T21:29:45.716Z,97744.38
2022-11-03T21:32:17.097Z,97746.94
2022-11-03T21:34:45.121Z,97761.41
2022-11-03T21:37:14.929Z,97770.72
2022-11-03T21:39:42.530Z,97788.25
2022-11-03T21:42:28.082Z,97792.75
2022-11-03T21:44:57.911Z,97796.44
2022-11-03T21:47:25.911Z,97806.97
2022-11-03T21:49:52.873Z,97800.50
2022-11-03T21:52:31.586Z,97792.63
2022-11-03T21:55:00.278Z,97793.47
2022-11-03T21:57:28.573Z,97792.81
2022-11-03T21:59:58.982Z,97801.19
2022-11-03T22:02:29.989Z,97821.00
2022-11-03T22:04:58.233Z,97822.16
2022-11-03T22:07:25.999Z,97825.97
2022-11-03T22:09:53.819Z,97823.84
2022-11-03T22:12:21.519Z,97819.41
2022-11-03T22:15:06.917Z,97804.66
2022-11-03T22:17:35.865Z,97805.06
2022-11-03T22:20:21.140Z,97804.31
2022-11-03T22:23:06.355Z,97805.06
2022-11-03T22:25:51.689Z,97817.69
2022-11-03T22:28:19.615Z,97824.34
2022-11-03T22:31:05.021Z,97837.44
2022-11-03T22:33:54.717Z,97856.28
2022-11-03T22:36:24.292Z,97848.66
2022-11-03T22:39:10.076Z,97845.94
2022-11-03T22:41:55.196Z,97859.34
2022-11-03T22:44:40.577Z,97865.88
2022-11-03T22:47:08.747Z,97862.44
2022-11-03T22:49:38.084Z,97852.19
2022-11-03T22:52:06.197Z,97830.56
2022-11-03T22:54:34.016Z,97833.09
2022-11-03T22:57:01.657Z,97834.16
2022-11-03T22:59:29.816Z,97829.38
2022-11-03T23:01:57.760Z,97836.13
2022-11-03T23:04:25.597Z,97836.88
2022-11-03T23:06:54.653Z,97856.66
2022-11-03T23:09:22.473Z,97871.78
2022-11-03T23:11:50.038Z,97891.56
2022-11-03T23:14:18.262Z,97905.69
2022-11-03T23:16:46.163Z,97907.38
2022-11-03T23:19:32.592Z,97901.16
2022-11-03T23:22:01.797Z,97900.31
2022-11-03T23:24:47.534Z,97900.78
2022-11-03T23:27:15.278Z,97896.09
2022-11-03T23:29:43.070Z,97889.38
2022-11-03T23:32:10.915Z,97891.00
2022-11-03T23:34:38.745Z,97894.56
2022-11-03T23:37:08.028Z,97888.00
2022-11-03T23:39:38.218Z,97890.81
2022-11-03T23:42:08.532Z,97897.97
2022-11-03T23:44:50.066Z,97897.19
2022-11-03T23:47:35.270Z,97898.81
2022-11-03T23:50:02.813Z,97905.03
2022-11-03T23:52:31.763Z,97908.63
2022-11-03T23:54:59.307Z,97913.28
2022-11-03T23:57:44.704Z,97920.06
